sensor_id;sensor_type;location;lat;lon;timestamp;pressure;altitude;pressure_sealevel;temperature;humidity
49689;BME280;70518;51.400;7.428;2023-08-20T00:01:26;159693.50;;;22.28;100.00
49689;BME280;70518;51.400;7.428;2023-08-20T00:03:53;159688.31;;;22.26;100.00
49689;BME280;70518;51.400;7.428;2023-08-20T00:06:19;159687.00;;;22.25;100.00
49689;BME280;70518;51.400;7.428;2023-08-20T00:08:45;159672.72;;;22.20;100.00
49689;BME280;70518;51.400;7.428;2023-08-20T00:11:11;159689.63;;;22.26;100.00
49689;BME280;70518;51.400;7.428;2023-08-20T00:13:37;159687.00;;;22.25;100.00
49689;BME280;70518;51.400;7.428;2023-08-20T00:16:02;159677.91;;;22.22;100.00
49689;BME280;70518;51.400;7.428;2023-08-20T00:18:28;159653.25;;;22.12;100.00
49689;BME280;70518;51.400;7.428;2023-08-20T00:20:54;159648.03;;;22.10;100.00
49689;BME280;70518;51.400;7.428;2023-08-20T00:23:20;159641.53;;;22.07;100.00
49689;BME280;70518;51.400;7.428;2023-08-20T00:25:46;159637.66;;;22.06;100.00
49689;BME280;70518;51.400;7.428;2023-08-20T00:28:11;159655.81;;;22.13;100.00
49689;BME280;70518;51.400;7.428;2023-08-20T00:30:39;159635.06;;;22.05;100.00
49689;BME280;70518;51.400;7.428;2023-08-20T00:33:05;159619.47;;;21.99;100.00
49689;BME280;70518;51.400;7.428;2023-08-20T00:35:30;159620.78;;;21.99;100.00
49689;BME280;70518;51.400;7.428;2023-08-20T00:37:56;159622.09;;;22.00;100.00
49689;BME280;70518;51.400;7.428;2023-08-20T00:40:21;159611.66;;;21.96;100.00
49689;BME280;70518;51.400;7.428;2023-08-20T00:42:46;159609.06;;;21.95;100.00
49689;BME280;70518;51.400;7.428;2023-08-20T00:45:12;159632.44;;;22.04;100.00
49689;BME280;70518;51.400;7.428;2023-08-20T00:47:37;159570.03;;;21.80;100.00
49689;BME280;70518;51.400;7.428;2023-08-20T00:50:03;159554.44;;;21.74;100.00
49689;BME280;70518;51.400;7.428;2023-08-20T00:52:32;159577.84;;;21.83;100.00
49689;BME280;70518;51.400;7.428;2023-08-20T00:54:58;159605.19;;;21.93;100.00
49689;BME280;70518;51.400;7.428;2023-08-20T00:57:24;159616.84;;;21.98;100.00
49689;BME280;70518;51.400;7.428;2023-08-20T00:59:50;159589.53;;;21.87;100.00
49689;BME280;70518;51.400;7.428;2023-08-20T01:02:17;159590.91;;;21.88;100.00
49689;BME280;70518;51.400;7.428;2023-08-20T01:04:42;159590.91;;;21.88;100.00
49689;BME280;70518;51.400;7.428;2023-08-20T01:10:30;159563.56;;;21.77;100.00
49689;BME280;70518;51.400;7.428;2023-08-20T01:12:58;159550.56;;;21.72;100.00
49689;BME280;70518;51.400;7.428;2023-08-20T01:15:25;159551.88;;;21.73;100.00
49689;BME280;70518;51.400;7.428;2023-08-20T01:17:50;159541.47;;;21.69;100.00
49689;BME280;70518;51.400;7.428;2023-08-20T01:20:16;159538.91;;;21.68;100.00
49689;BME280;70518;51.400;7.428;2023-08-20T01:25:32;159544.09;;;21.70;100.00
49689;BME280;70518;51.400;7.428;2023-08-20T01:28:26;159544.09;;;21.70;100.00
49689;BME280;70518;51.400;7.428;2023-08-20T01:30:53;159544.09;;;21.70;100.00
49689;BME280;70518;51.400;7.428;2023-08-20T01:33:19;159557.06;;;21.75;100.00
49689;BME280;70518;51.400;7.428;2023-08-20T01:35:44;159537.59;;;21.67;100.00
49689;BME280;70518;51.400;7.428;2023-08-20T01:38:10;159527.19;;;21.63;100.00
49689;BME280;70518;51.400;7.428;2023-08-20T01:40:35;159518.09;;;21.59;100.00
49689;BME280;70518;51.400;7.428;2023-08-20T01:43:00;159510.31;;;21.56;100.00
49689;BME280;70518;51.400;7.428;2023-08-20T01:45:26;159485.63;;;21.47;100.00
49689;BME280;70518;51.400;7.428;2023-08-20T01:47:51;159485.63;;;21.47;100.00
49689;BME280;70518;51.400;7.428;2023-08-20T01:50:17;159468.78;;;21.40;100.00
49689;BME280;70518;51.400;7.428;2023-08-20T01:52:42;159479.13;;;21.44;100.00
49689;BME280;70518;51.400;7.428;2023-08-20T01:55:08;159455.75;;;21.35;100.00
49689;BME280;70518;51.400;7.428;2023-08-20T01:57:33;159458.38;;;21.36;100.00
49689;BME280;70518;51.400;7.428;2023-08-20T01:59:58;159457.06;;;21.36;100.00
49689;BME280;70518;51.400;7.428;2023-08-20T02:02:24;159463.56;;;21.38;100.00
49689;BME280;70518;51.400;7.428;2023-08-20T02:04:49;159454.50;;;21.35;100.00
49689;BME280;70518;51.400;7.428;2023-08-20T02:07:15;159455.75;;;21.35;100.00
49689;BME280;70518;51.400;7.428;2023-08-20T02:09:40;159445.41;;;21.31;100.00
49689;BME280;70518;51.400;7.428;2023-08-20T02:12:06;159438.91;;;21.29;100.00
49689;BME280;70518;51.400;7.428;2023-08-20T02:14:31;159410.31;;;21.18;100.00
49689;BME280;70518;51.400;7.428;2023-08-20T02:17:02;159419.41;;;21.21;100.00
49689;BME280;70518;51.400;7.428;2023-08-20T02:19:28;159427.22;;;21.24;100.00
49689;BME280;70518;51.400;7.428;2023-08-20T02:21:53;159432.38;;;21.26;100.00
49689;BME280;70518;51.400;7.428;2023-08-20T02:24:19;159437.63;;;21.28;100.00
49689;BME280;70518;51.400;7.428;2023-08-20T02:26:44;159429.81;;;21.25;100.00
49689;BME280;70518;51.400;7.428;2023-08-20T02:29:09;159427.22;;;21.24;100.00
49689;BME280;70518;51.400;7.428;2023-08-20T02:31:35;159429.81;;;21.25;100.00
49689;BME280;70518;51.400;7.428;2023-08-20T02:34:01;159411.63;;;21.18;100.00
49689;BME280;70518;51.400;7.428;2023-08-20T02:36:26;159397.34;;;21.13;100.00
49689;BME280;70518;51.400;7.428;2023-08-20T02:38:51;159366.16;;;21.00;100.00
49689;BME280;70518;51.400;7.428;2023-08-20T02:41:16;159359.66;;;20.98;100.00
49689;BME280;70518;51.400;7.428;2023-08-20T02:43:42;159367.44;;;21.01;100.00
49689;BME280;70518;51.400;7.428;2023-08-20T02:46:07;159368.75;;;21.01;100.00
49689;BME280;70518;51.400;7.428;2023-08-20T02:48:33;159366.16;;;21.00;100.00
49689;BME280;70518;51.400;7.428;2023-08-20T02:50:58;159371.31;;;21.02;100.00
49689;BME280;70518;51.400;7.428;2023-08-20T02:53:23;159375.25;;;21.04;100.00
49689;BME280;70518;51.400;7.428;2023-08-20T02:55:49;159396.03;;;21.12;100.00
49689;BME280;70518;51.400;7.428;2023-08-20T02:58:14;159380.41;;;21.06;100.00
49689;BME280;70518;51.400;7.428;2023-08-20T03:00:41;159355.75;;;20.96;100.00
49689;BME280;70518;51.400;7.428;2023-08-20T03:03:07;159353.19;;;20.95;100.00
49689;BME280;70518;51.400;7.428;2023-08-20T03:05:34;159364.84;;;21.00;100.00
49689;BME280;70518;51.400;7.428;2023-08-20T03:07:59;159346.69;;;20.93;100.00
49689;BME280;70518;51.400;7.428;2023-08-20T03:10:26;159370.06;;;21.02;100.00
49689;BME280;70518;51.400;7.428;2023-08-20T03:12:52;159354.47;;;20.96;100.00
49689;BME280;70518;51.400;7.428;2023-08-20T03:15:17;159364.84;;;21.00;100.00
49689;BME280;70518;51.400;7.428;2023-08-20T03:17:42;159318.09;;;20.82;100.00
49689;BME280;70518;51.400;7.428;2023-08-20T03:20:08;159316.84;;;20.81;100.00
49689;BME280;70518;51.400;7.428;2023-08-20T03:22:37;159310.31;;;20.79;100.00
49689;BME280;70518;51.400;7.428;2023-08-20T03:25:02;159314.22;;;20.80;100.00
49689;BME280;70518;51.400;7.428;2023-08-20T03:27:28;159290.84;;;20.71;100.00
49689;BME280;70518;51.400;7.428;2023-08-20T03:29:53;159303.81;;;20.76;100.00
49689;BME280;70518;51.400;7.428;2023-08-20T03:32:18;159312.91;;;20.80;100.00
49689;BME280;70518;51.400;7.428;2023-08-20T03:34:43;159316.84;;;20.81;100.00
49689;BME280;70518;51.400;7.428;2023-08-20T03:37:09;159322.03;;;20.83;100.00
49689;BME280;70518;51.400;7.428;2023-08-20T03:39:34;159329.81;;;20.86;100.00
49689;BME280;70518;51.400;7.428;2023-08-20T03:41:59;159338.91;;;20.90;100.00
49689;BME280;70518;51.400;7.428;2023-08-20T03:44:25;159340.22;;;20.90;100.00
49689;BME280;70518;51.400;7.428;2023-08-20T03:46:50;159337.59;;;20.89;100.00
49689;BME280;70518;51.400;7.428;2023-08-20T03:49:16;159327.19;;;20.85;100.00
49689;BME280;70518;51.400;7.428;2023-08-20T03:51:41;159298.66;;;20.74;100.00
49689;BME280;70518;51.400;7.428;2023-08-20T03:54:08;159303.81;;;20.76;100.00
49689;BME280;70518;51.400;7.428;2023-08-20T03:56:33;159301.25;;;20.75;100.00
49689;BME280;70518;51.400;7.428;2023-08-20T03:58:58;159294.72;;;20.73;100.00
49689;BME280;70518;51.400;7.428;2023-08-20T04:01:24;159270.09;;;20.63;100.00
49689;BME280;70518;51.400;7.428;2023-08-20T04:03:49;159263.63;;;20.61;100.00
49689;BME280;70518;51.400;7.428;2023-08-20T04:06:14;159267.50;;;20.62;100.00
49689;BME280;70518;51.400;7.428;2023-08-20T04:08:40;159245.44;;;20.54;100.00
49689;BME280;70518;51.400;7.428;2023-08-20T04:11:05;159242.81;;;20.52;100.00
49689;BME280;70518;51.400;7.428;2023-08-20T04:13:31;159251.91;;;20.56;100.00
49689;BME280;70518;51.400;7.428;2023-08-20T04:15:56;159250.63;;;20.56;100.00
49689;BME280;70518;51.400;7.428;2023-08-20T04:18:22;159255.84;;;20.58;100.00
49689;BME280;70518;51.400;7.428;2023-08-20T04:20:49;159250.63;;;20.56;100.00
49689;BME280;70518;51.400;7.428;2023-08-20T04:23:15;159253.22;;;20.57;100.00
49689;BME280;70518;51.400;7.428;2023-08-20T04:25:40;159227.25;;;20.46;100.00
49689;BME280;70518;51.400;7.428;2023-08-20T04:28:06;159215.59;;;20.42;100.00
49689;BME280;70518;51.400;7.428;2023-08-20T04:30:31;159202.63;;;20.37;100.00
49689;BME280;70518;51.400;7.428;2023-08-20T04:32:56;159206.50;;;20.38;100.00
49689;BME280;70518;51.400;7.428;2023-08-20T04:35:22;159206.50;;;20.38;100.00
49689;BME280;70518;51.400;7.428;2023-08-20T04:37:47;159210.41;;;20.40;100.00
49689;BME280;70518;51.400;7.428;2023-08-20T04:40:12;159197.41;;;20.35;100.00
49689;BME280;70518;51.400;7.428;2023-08-20T04:42:38;159187.06;;;20.31;100.00
49689;BME280;70518;51.400;7.428;2023-08-20T04:45:03;159187.06;;;20.31;100.00
49689;BME280;70518;51.400;7.428;2023-08-20T04:47:29;159201.31;;;20.36;100.00
49689;BME280;70518;51.400;7.428;2023-08-20T04:49:54;159218.16;;;20.43;100.00
49689;BME280;70518;51.400;7.428;2023-08-20T04:52:19;159189.63;;;20.32;100.00
49689;BME280;70518;51.400;7.428;2023-08-20T04:54:46;159194.84;;;20.34;100.00
49689;BME280;70518;51.400;7.428;2023-08-20T04:57:11;159185.75;;;20.30;100.00
49689;BME280;70518;51.400;7.428;2023-08-20T04:59:37;159183.13;;;20.29;100.00
49689;BME280;70518;51.400;7.428;2023-08-20T05:02:02;159176.66;;;20.27;100.00
49689;BME280;70518;51.400;7.428;2023-08-20T05:04:27;159177.97;;;20.27;100.00
49689;BME280;70518;51.400;7.428;2023-08-20T05:06:52;159185.75;;;20.30;100.00
49689;BME280;70518;51.400;7.428;2023-08-20T05:09:18;159188.31;;;20.31;100.00
49689;BME280;70518;51.400;7.428;2023-08-20T05:11:43;159179.28;;;20.28;100.00
49689;BME280;70518;51.400;7.428;2023-08-20T05:14:08;159180.53;;;20.28;100.00
49689;BME280;70518;51.400;7.428;2023-08-20T05:16:34;159185.75;;;20.30;100.00
49689;BME280;70518;51.400;7.428;2023-08-20T05:18:59;159162.34;;;20.21;100.00
49689;BME280;70518;51.400;7.428;2023-08-20T05:21:24;159175.34;;;20.26;100.00
49689;BME280;70518;51.400;7.428;2023-08-20T05:23:50;159164.91;;;20.22;100.00
49689;BME280;70518;51.400;7.428;2023-08-20T05:26:15;159172.75;;;20.25;100.00
49689;BME280;70518;51.400;7.428;2023-08-20T05:28:40;159179.28;;;20.28;100.00
49689;BME280;70518;51.400;7.428;2023-08-20T05:31:06;159183.13;;;20.29;100.00
49689;BME280;70518;51.400;7.428;2023-08-20T05:33:31;159183.13;;;20.29;100.00
49689;BME280;70518;51.400;7.428;2023-08-20T05:35:57;159174.03;;;20.26;100.00
49689;BME280;70518;51.400;7.428;2023-08-20T05:38:23;159170.13;;;20.24;100.00
49689;BME280;70518;51.400;7.428;2023-08-20T05:40:48;159168.81;;;20.24;100.00
49689;BME280;70518;51.400;7.428;2023-08-20T05:43:13;159164.91;;;20.22;100.00
49689;BME280;70518;51.400;7.428;2023-08-20T05:45:39;159180.53;;;20.28;100.00
49689;BME280;70518;51.400;7.428;2023-08-20T05:48:04;159183.13;;;20.29;100.00
49689;BME280;70518;51.400;7.428;2023-08-20T05:50:30;159203.88;;;20.37;100.00
49689;BME280;70518;51.400;7.428;2023-08-20T05:52:55;159207.81;;;20.39;100.00
49689;BME280;70518;51.400;7.428;2023-08-20T05:55:20;159202.63;;;20.37;100.00
49689;BME280;70518;51.400;7.428;2023-08-20T05:57:45;159205.19;;;20.38;100.00
49689;BME280;70518;51.400;7.428;2023-08-20T06:00:11;159190.94;;;20.32;100.00
49689;BME280;70518;51.400;7.428;2023-08-20T06:02:37;159197.41;;;20.35;100.00
49689;BME280;70518;51.400;7.428;2023-08-20T06:05:03;159203.88;;;20.37;100.00
49689;BME280;70518;51.400;7.428;2023-08-20T06:07:31;159194.84;;;20.34;100.00
49689;BME280;70518;51.400;7.428;2023-08-20T06:09:57;159205.19;;;20.38;100.00
49689;BME280;70518;51.400;7.428;2023-08-20T06:12:23;159224.69;;;20.45;100.00
49689;BME280;70518;51.400;7.428;2023-08-20T06:14:48;159193.53;;;20.33;100.00
49689;BME280;70518;51.400;7.428;2023-08-20T06:17:14;159216.91;;;20.42;100.00
49689;BME280;70518;51.400;7.428;2023-08-20T06:19:39;159220.78;;;20.44;100.00
49689;BME280;70518;51.400;7.428;2023-08-20T06:22:04;159222.06;;;20.44;100.00
49689;BME280;70518;51.400;7.428;2023-08-20T06:24:29;159225.94;;;20.46;100.00
49689;BME280;70518;51.400;7.428;2023-08-20T06:26:55;159236.34;;;20.50;100.00
49689;BME280;70518;51.400;7.428;2023-08-20T06:29:20;159237.66;;;20.50;100.00
49689;BME280;70518;51.400;7.428;2023-08-20T06:31:47;159228.56;;;20.47;100.00
49689;BME280;70518;51.400;7.428;2023-08-20T06:34:13;159246.75;;;20.54;100.00
49689;BME280;70518;51.400;7.428;2023-08-20T06:36:38;159261.00;;;20.60;100.00
49689;BME280;70518;51.400;7.428;2023-08-20T06:39:03;159273.97;;;20.65;100.00
49689;BME280;70518;51.400;7.428;2023-08-20T06:41:29;159279.19;;;20.67;100.00
49689;BME280;70518;51.400;7.428;2023-08-20T06:43:54;159279.19;;;20.67;100.00
49689;BME280;70518;51.400;7.428;2023-08-20T06:46:19;159284.38;;;20.69;100.00
49689;BME280;70518;51.400;7.428;2023-08-20T06:48:45;159297.34;;;20.74;100.00
49689;BME280;70518;51.400;7.428;2023-08-20T06:51:14;159299.97;;;20.75;100.00
49689;BME280;70518;51.400;7.428;2023-08-20T06:53:40;159327.19;;;20.85;100.00
49689;BME280;70518;51.400;7.428;2023-08-20T06:56:07;159341.47;;;20.91;100.00
49689;BME280;70518;51.400;7.428;2023-08-20T06:58:33;159350.56;;;20.94;100.00
49689;BME280;70518;51.400;7.428;2023-08-20T07:00:58;159323.31;;;20.84;100.00
49689;BME280;70518;51.400;7.428;2023-08-20T07:03:42;159325.88;;;20.85;100.00
49689;BME280;70518;51.400;7.428;2023-08-20T07:06:09;159362.28;;;20.99;100.00
49689;BME280;70518;51.400;7.428;2023-08-20T07:08:35;159371.31;;;21.02;100.00
49689;BME280;70518;51.400;7.428;2023-08-20T07:11:01;159381.72;;;21.06;100.00
49689;BME280;70518;51.400;7.428;2023-08-20T07:13:26;159375.25;;;21.04;100.00
49689;BME280;70518;51.400;7.428;2023-08-20T07:15:52;159407.75;;;21.17;100.00
49689;BME280;70518;51.400;7.428;2023-08-20T07:18:17;159440.19;;;21.29;100.00
49689;BME280;70518;51.400;7.428;2023-08-20T07:20:43;159436.31;;;21.28;100.00
49689;BME280;70518;51.400;7.428;2023-08-20T07:23:10;159463.56;;;21.38;100.00
49689;BME280;70518;51.400;7.428;2023-08-20T07:25:36;159475.28;;;21.43;100.00
49689;BME280;70518;51.400;7.428;2023-08-20T07:28:03;159488.22;;;21.48;100.00
49689;BME280;70518;51.400;7.428;2023-08-20T07:30:28;159510.31;;;21.56;100.00
49689;BME280;70518;51.400;7.428;2023-08-20T07:32:54;159527.19;;;21.63;100.00
49689;BME280;70518;51.400;7.428;2023-08-20T07:35:19;159524.59;;;21.62;100.00
49689;BME280;70518;51.400;7.428;2023-08-20T07:37:45;159527.19;;;21.63;100.00
49689;BME280;70518;51.400;7.428;2023-08-20T07:40:12;159580.44;;;21.84;100.00
49689;BME280;70518;51.400;7.428;2023-08-20T07:42:39;159605.19;;;21.93;100.00
49689;BME280;70518;51.400;7.428;2023-08-20T07:45:05;159632.44;;;22.04;100.00
49689;BME280;70518;51.400;7.428;2023-08-20T07:47:30;159654.50;;;22.12;100.00
49689;BME280;70518;51.400;7.428;2023-08-20T07:49:56;159624.66;;;22.01;100.00
49689;BME280;70518;51.400;7.428;2023-08-20T07:52:21;159654.50;;;22.12;100.00
49689;BME280;70518;51.400;7.428;2023-08-20T07:54:46;159664.94;;;22.17;100.00
49689;BME280;70518;51.400;7.428;2023-08-20T07:57:11;159663.63;;;22.16;100.00
49689;BME280;70518;51.400;7.428;2023-08-20T07:59:38;159697.41;;;22.29;100.00
49689;BME280;70518;51.400;7.428;2023-08-20T08:02:03;159654.50;;;22.12;100.00
49689;BME280;70518;51.400;7.428;2023-08-20T08:04:29;159685.69;;;22.25;100.00
49689;BME280;70518;51.400;7.428;2023-08-20T08:06:54;159719.50;;;22.38;100.00
49689;BME280;70518;51.400;7.428;2023-08-20T08:09:25;159757.16;;;22.52;100.00
49689;BME280;70518;51.400;7.428;2023-08-20T08:11:51;159777.94;;;22.60;100.00
49689;BME280;70518;51.400;7.428;2023-08-20T08:14:17;159762.34;;;22.54;100.00
49689;BME280;70518;51.400;7.428;2023-08-20T08:16:43;159789.72;;;22.65;100.00
49689;BME280;70518;51.400;7.428;2023-08-20T08:19:08;159798.81;;;22.68;100.00
49689;BME280;70518;51.400;7.428;2023-08-20T08:21:33;159836.50;;;22.83;100.00
49689;BME280;70518;51.400;7.428;2023-08-20T08:23:59;159891.03;;;23.04;100.00
49689;BME280;70518;51.400;7.428;2023-08-20T08:26:24;159875.50;;;22.98;100.00
49689;BME280;70518;51.400;7.428;2023-08-20T08:28:49;159892.34;;;23.05;100.00
49689;BME280;70518;51.400;7.428;2023-08-20T08:31:15;159891.03;;;23.04;100.00
49689;BME280;70518;51.400;7.428;2023-08-20T08:33:40;159924.84;;;23.17;100.00
49689;BME280;70518;51.400;7.428;2023-08-20T08:36:05;159917.06;;;23.14;100.00
49689;BME280;70518;51.400;7.428;2023-08-20T08:38:30;159930.03;;;23.19;100.00
49689;BME280;70518;51.400;7.428;2023-08-20T08:40:56;159959.94;;;23.31;100.00
49689;BME280;70518;51.400;7.428;2023-08-20T08:43:22;159978.16;;;23.38;100.00
49689;BME280;70518;51.400;7.428;2023-08-20T08:45:47;160015.91;;;23.53;100.00
49689;BME280;70518;51.400;7.428;2023-08-20T08:48:14;160025.00;;;23.56;100.00
49689;BME280;70518;51.400;7.428;2023-08-20T08:50:40;160025.00;;;23.56;100.00
49689;BME280;70518;51.400;7.428;2023-08-20T08:53:06;160021.09;;;23.55;100.00
49689;BME280;70518;51.400;7.428;2023-08-20T08:55:33;160028.88;;;23.58;100.00
49689;BME280;70518;51.400;7.428;2023-08-20T08:57:58;160045.78;;;23.64;100.00
49689;BME280;70518;51.400;7.428;2023-08-20T09:00:23;160071.81;;;23.74;100.00
49689;BME280;70518;51.400;7.428;2023-08-20T09:02:49;160084.81;;;23.79;100.00
49689;BME280;70518;51.400;7.428;2023-08-20T09:05:14;160105.59;;;23.88;100.00
49689;BME280;70518;51.400;7.428;2023-08-20T09:07:43;160099.09;;;23.85;100.00
49689;BME280;70518;51.400;7.428;2023-08-20T09:10:10;160084.81;;;23.79;100.00
49689;BME280;70518;51.400;7.428;2023-08-20T09:12:35;160105.59;;;23.88;100.00
49689;BME280;70518;51.400;7.428;2023-08-20T09:15:01;160123.81;;;23.95;100.00
49689;BME280;70518;51.400;7.428;2023-08-20T09:17:27;160155.03;;;24.07;100.00
49689;BME280;70518;51.400;7.428;2023-08-20T09:19:54;160192.78;;;24.21;100.00
49689;BME280;70518;51.400;7.428;2023-08-20T09:22:21;160218.81;;;24.31;100.00
49689;BME280;70518;51.400;7.428;2023-08-20T09:24:53;160246.13;;;24.42;100.00
49689;BME280;70518;51.400;7.428;2023-08-20T09:27:18;160282.53;;;24.56;100.00
49689;BME280;70518;51.400;7.428;2023-08-20T09:29:55;160309.88;;;24.67;100.00
49689;BME280;70518;51.400;7.428;2023-08-20T09:32:27;160287.75;;;24.58;100.00
49689;BME280;70518;51.400;7.428;2023-08-20T09:34:54;160337.16;;;24.77;100.00
49689;BME280;70518;51.400;7.428;2023-08-20T09:37:21;160339.78;;;24.78;100.00
49689;BME280;70518;51.400;7.428;2023-08-20T09:39:47;160318.97;;;24.70;100.00
49689;BME280;70518;51.400;7.428;2023-08-20T09:42:13;160326.78;;;24.73;100.00
49689;BME280;70518;51.400;7.428;2023-08-20T09:44:40;160342.41;;;24.79;100.00
49689;BME280;70518;51.400;7.428;2023-08-20T09:47:15;160400.97;;;25.02;100.00
49689;BME280;70518;51.400;7.428;2023-08-20T09:49:45;160475.13;;;25.31;100.00
49689;BME280;70518;51.400;7.428;2023-08-20T09:52:14;160480.31;;;25.33;100.00
49689;BME280;70518;51.400;7.428;2023-08-20T09:57:23;160515.47;;;25.47;100.00
49689;BME280;70518;51.400;7.428;2023-08-20T09:59:49;160531.16;;;25.53;100.00
49689;BME280;70518;51.400;7.428;2023-08-20T10:02:16;160542.84;;;25.57;100.00
49689;BME280;70518;51.400;7.428;2023-08-20T10:04:43;160566.28;;;25.66;100.00
49689;BME280;70518;51.400;7.428;2023-08-20T10:07:10;160567.59;;;25.67;100.00
49689;BME280;70518;51.400;7.428;2023-08-20T10:09:38;160597.50;;;25.78;100.00
49689;BME280;70518;51.400;7.428;2023-08-20T10:12:04;160618.31;;;25.86;100.00
49689;BME280;70518;51.400;7.428;2023-08-20T10:14:30;160647.00;;;25.98;100.00
49689;BME280;70518;51.400;7.428;2023-08-20T10:16:56;160669.13;;;26.06;100.00
49689;BME280;70518;51.400;7.428;2023-08-20T10:19:22;160701.72;;;26.19;100.00
49689;BME280;70518;51.400;7.428;2023-08-20T10:21:52;160706.91;;;26.21;100.00
49689;BME280;70518;51.400;7.428;2023-08-20T10:24:17;160703.00;;;26.19;100.00
49689;BME280;70518;51.400;7.428;2023-08-20T10:26:45;160732.97;;;26.31;100.00
49689;BME280;70518;51.400;7.428;2023-08-20T10:29:40;160765.50;;;26.43;100.00
49689;BME280;70518;51.400;7.428;2023-08-20T10:32:10;160787.63;;;26.52;100.00
49689;BME280;70518;51.400;7.428;2023-08-20T10:34:36;160786.38;;;26.52;100.00
49689;BME280;70518;51.400;7.428;2023-08-20T10:37:09;160791.56;;;26.54;100.00
49689;BME280;70518;51.400;7.428;2023-08-20T10:39:34;160802.00;;;26.58;100.00
49689;BME280;70518;51.400;7.428;2023-08-20T10:45:08;160818.88;;;26.64;100.00
49689;BME280;70518;51.400;7.428;2023-08-20T10:47:44;160838.44;;;26.72;100.00
49689;BME280;70518;51.400;7.428;2023-08-20T10:50:11;160904.88;;;26.97;100.00
49689;BME280;70518;51.400;7.428;2023-08-20T10:52:40;160921.84;;;27.04;100.00
49689;BME280;70518;51.400;7.428;2023-08-20T10:55:07;160929.66;;;27.07;100.00
49689;BME280;70518;51.400;7.428;2023-08-20T10:57:35;160953.09;;;27.16;100.00
49689;BME280;70518;51.400;7.428;2023-08-20T11:00:03;160970.03;;;27.23;100.00
49689;BME280;70518;51.400;7.428;2023-08-20T11:02:34;161010.38;;;27.38;100.00
49689;BME280;70518;51.400;7.428;2023-08-20T11:05:01;161049.53;;;27.53;100.00
49689;BME280;70518;51.400;7.428;2023-08-20T11:07:27;161050.84;;;27.54;100.00
49689;BME280;70518;51.400;7.428;2023-08-20T11:09:53;161079.47;;;27.65;100.00
49689;BME280;70518;51.400;7.428;2023-08-20T11:12:20;161092.53;;;27.70;100.00
49689;BME280;70518;51.400;7.428;2023-08-20T11:14:46;161113.38;;;27.78;100.00
49689;BME280;70518;51.400;7.428;2023-08-20T11:17:11;161121.19;;;27.81;100.00
49689;BME280;70518;51.400;7.428;2023-08-20T11:19:37;161125.06;;;27.83;100.00
49689;BME280;70518;51.400;7.428;2023-08-20T11:22:02;161118.56;;;27.80;100.00
49689;BME280;70518;51.400;7.428;2023-08-20T11:24:31;161119.88;;;27.81;100.00
49689;BME280;70518;51.400;7.428;2023-08-20T11:26:57;161101.63;;;27.74;100.00
49689;BME280;70518;51.400;7.428;2023-08-20T11:29:22;161099.06;;;27.73;100.00
49689;BME280;70518;51.400;7.428;2023-08-20T11:31:48;161123.81;;;27.82;100.00
49689;BME280;70518;51.400;7.428;2023-08-20T11:34:14;161129.00;;;27.84;100.00
49689;BME280;70518;51.400;7.428;2023-08-20T11:36:39;161148.53;;;27.92;100.00
49689;BME280;70518;51.400;7.428;2023-08-20T11:39:05;161169.41;;;28.00;100.00
49689;BME280;70518;51.400;7.428;2023-08-20T11:41:31;161182.50;;;28.05;100.00
49689;BME280;70518;51.400;7.428;2023-08-20T11:43:57;161204.63;;;28.13;100.00
49689;BME280;70518;51.400;7.428;2023-08-20T11:46:23;161199.44;;;28.11;100.00
49689;BME280;70518;51.400;7.428;2023-08-20T11:49:02;161199.44;;;28.11;100.00
49689;BME280;70518;51.400;7.428;2023-08-20T11:51:29;161174.63;;;28.02;100.00
49689;BME280;70518;51.400;7.428;2023-08-20T11:53:55;161170.69;;;28.00;100.00
49689;BME280;70518;51.400;7.428;2023-08-20T11:56:21;161178.50;;;28.03;100.00
49689;BME280;70518;51.400;7.428;2023-08-20T11:58:58;161202.00;;;28.12;100.00
49689;BME280;70518;51.400;7.428;2023-08-20T12:01:23;161217.66;;;28.19;100.00
49689;BME280;70518;51.400;7.428;2023-08-20T12:03:49;161204.63;;;28.13;100.00
49689;BME280;70518;51.400;7.428;2023-08-20T12:06:21;161231.97;;;28.24;100.00
49689;BME280;70518;51.400;7.428;2023-08-20T12:08:49;161241.13;;;28.28;100.00
49689;BME280;70518;51.400;7.428;2023-08-20T12:11:14;161248.94;;;28.31;100.00
49689;BME280;70518;51.400;7.428;2023-08-20T12:13:40;161238.53;;;28.27;100.00
49689;BME280;70518;51.400;7.428;2023-08-20T12:16:05;161245.06;;;28.29;100.00
49689;BME280;70518;51.400;7.428;2023-08-20T12:18:31;161246.34;;;28.30;100.00
49689;BME280;70518;51.400;7.428;2023-08-20T12:20:56;161243.75;;;28.29;100.00
49689;BME280;70518;51.400;7.428;2023-08-20T12:23:22;161211.16;;;28.16;100.00
49689;BME280;70518;51.400;7.428;2023-08-20T12:25:51;161199.44;;;28.11;100.00
49689;BME280;70518;51.400;7.428;2023-08-20T12:28:17;161212.44;;;28.17;100.00
49689;BME280;70518;51.400;7.428;2023-08-20T12:30:43;161235.91;;;28.26;100.00
49689;BME280;70518;51.400;7.428;2023-08-20T12:33:09;161264.56;;;28.37;100.00
49689;BME280;70518;51.400;7.428;2023-08-20T12:35:34;161284.16;;;28.44;100.00
49689;BME280;70518;51.400;7.428;2023-08-20T12:38:00;161282.84;;;28.44;100.00
49689;BME280;70518;51.400;7.428;2023-08-20T12:40:25;161290.66;;;28.47;100.00
49689;BME280;70518;51.400;7.428;2023-08-20T12:42:50;161272.41;;;28.40;100.00
49689;BME280;70518;51.400;7.428;2023-08-20T12:45:16;161288.03;;;28.46;100.00
49689;BME280;70518;51.400;7.428;2023-08-20T12:47:41;161301.06;;;28.51;100.00